Time;durP1;ratioP1;P1;durP2;ratioP2;P2;SDS_P1;SDS_P2;PMS_P1;PMS_P2;Temp;Humidity;BMP_temperature;BMP_pressure;BME280_temperature;BME280_humidity;BME280_pressure;Samples;Min_cycle;Max_cycle;Signal;HPM_P1;HPM_P2
2022/10/02 00:02:29;;;;;;;10.37;1.43;;;11.70;99.90;;;;;;5048241;28;20283;-71
2022/10/02 00:05:20;;;;;;;9.37;1.77;;;11.70;99.90;;;;;;5076751;28;20291;-71
2022/10/02 00:07:48;;;;;;;16.67;2.40;;;11.70;99.90;;;;;;5062255;28;20299;-71
2022/10/02 00:10:23;;;;;;;11.57;2.27;;;11.70;99.90;;;;;;5058274;28;20778;-71
2022/10/02 00:12:54;;;;;;;8.90;1.55;;;11.70;99.90;;;;;;5062473;28;20306;-71
2022/10/02 00:15:25;;;;;;;13.37;2.27;;;11.70;99.90;;;;;;5082685;28;20040;-71
2022/10/02 00:17:55;;;;;;;10.07;1.43;;;11.70;99.90;;;;;;5062776;28;20305;-71
2022/10/02 00:20:29;;;;;;;15.93;1.40;;;11.60;99.90;;;;;;5053580;28;20310;-71
2022/10/02 00:23:18;;;;;;;12.47;2.00;;;11.60;99.90;;;;;;5051076;28;20353;-71
2022/10/02 00:25:54;;;;;;;13.87;1.60;;;11.60;99.90;;;;;;5062242;28;20308;-71
2022/10/02 00:28:41;;;;;;;7.33;1.00;;;11.50;99.90;;;;;;5058208;28;20303;-71
2022/10/02 00:31:40;;;;;;;12.00;1.30;;;11.50;99.90;;;;;;5059470;28;20286;-71
2022/10/02 00:34:25;;;;;;;12.63;2.37;;;11.40;99.90;;;;;;5081269;28;20290;-71
2022/10/02 00:37:06;;;;;;;14.68;2.65;;;11.30;99.90;;;;;;5060283;28;20821;-71
2022/10/02 00:39:35;;;;;;;6.27;1.20;;;11.20;99.90;;;;;;5063960;28;20079;-71
2022/10/02 00:42:09;;;;;;;9.00;1.53;;;11.10;99.90;;;;;;5053084;28;20282;-71
2022/10/02 00:44:59;;;;;;;7.72;2.05;;;11.00;99.90;;;;;;5050984;28;20318;-71
2022/10/02 00:47:37;;;;;;;13.73;1.87;;;11.00;99.90;;;;;;5051938;28;20044;-71
2022/10/02 00:50:21;;;;;;;7.60;1.97;;;10.90;99.90;;;;;;5065425;28;20302;-71
2022/10/02 00:52:58;;;;;;;9.37;1.43;;;10.90;99.90;;;;;;5055216;28;20298;-71
2022/10/02 00:55:49;;;;;;;8.80;1.60;;;10.80;99.90;;;;;;5048674;28;20333;-71
2022/10/02 00:58:38;;;;;;;11.47;1.70;;;10.70;99.90;;;;;;5088439;28;20293;-71
2022/10/02 01:01:09;;;;;;;6.70;1.17;;;10.70;99.90;;;;;;5083984;28;20435;-71
2022/10/02 01:04:01;;;;;;;9.57;1.83;;;10.60;99.90;;;;;;5067838;28;20347;-71
2022/10/02 01:06:27;;;;;;;11.00;2.27;;;10.50;99.90;;;;;;5080963;28;20281;-72
2022/10/02 01:08:54;;;;;;;12.63;2.00;;;10.50;99.90;;;;;;5030516;28;21095;-71
2022/10/02 01:11:23;;;;;;;10.57;1.67;;;10.50;99.90;;;;;;5057861;28;20289;-71
2022/10/02 01:13:50;;;;;;;10.50;1.67;;;10.50;99.90;;;;;;5076654;28;20301;-71
2022/10/02 01:16:16;;;;;;;9.53;1.73;;;10.50;99.90;;;;;;5024395;28;20295;-71
2022/10/02 01:18:46;;;;;;;9.00;1.97;;;10.50;99.90;;;;;;5043042;28;20385;-71
2022/10/02 01:21:36;;;;;;;9.67;1.33;;;10.50;99.90;;;;;;5056641;28;20717;-71
2022/10/02 01:24:16;;;;;;;14.17;1.80;;;10.50;99.90;;;;;;5071376;28;20898;-72
2022/10/02 01:26:41;;;;;;;10.23;1.40;;;10.50;99.90;;;;;;5061867;28;20304;-71
2022/10/02 01:29:07;;;;;;;13.27;2.07;;;10.60;99.90;;;;;;5064333;28;20306;-72
2022/10/02 01:31:34;;;;;;;17.17;2.73;;;10.60;99.90;;;;;;5053698;28;20048;-71
2022/10/02 01:34:01;;;;;;;13.97;2.37;;;10.60;99.90;;;;;;5056632;28;20044;-71
2022/10/02 01:36:27;;;;;;;13.20;1.73;;;10.60;99.90;;;;;;5056524;28;20306;-71
2022/10/02 01:38:54;;;;;;;10.17;1.63;;;10.60;99.90;;;;;;5058948;28;20367;-71
2022/10/02 01:41:19;;;;;;;6.73;1.40;;;10.60;99.90;;;;;;5039587;28;20278;-71
2022/10/02 01:43:51;;;;;;;9.87;1.10;;;10.50;99.90;;;;;;5076463;28;20460;-71
2022/10/02 01:46:52;;;;;;;13.23;2.10;;;10.50;99.90;;;;;;5071958;28;20245;-72
2022/10/02 01:49:52;;;;;;;6.73;1.10;;;10.40;99.90;;;;;;5055250;28;20302;-71
2022/10/02 01:52:30;;;;;;;14.87;1.93;;;10.40;99.90;;;;;;5070880;28;20845;-71
2022/10/02 01:55:10;;;;;;;11.13;1.40;;;10.40;99.90;;;;;;5054639;28;20299;-71
2022/10/02 01:57:59;;;;;;;8.77;1.10;;;10.40;99.90;;;;;;5073542;28;20355;-71
2022/10/02 02:00:28;;;;;;;9.20;1.43;;;10.40;99.90;;;;;;5058417;28;20294;-71
2022/10/02 02:03:36;;;;;;;7.67;1.90;;;10.50;99.90;;;;;;5038482;28;20655;-71
2022/10/02 02:06:24;;;;;;;10.17;1.30;;;10.50;99.90;;;;;;5008232;28;20485;-71
2022/10/02 02:08:53;;;;;;;16.10;2.00;;;10.50;99.90;;;;;;5074176;28;20298;-71
2022/10/02 02:11:21;;;;;;;15.57;2.10;;;10.50;99.90;;;;;;5064834;28;20309;-71
2022/10/02 02:13:50;;;;;;;12.53;1.73;;;10.50;99.90;;;;;;5051591;28;20394;-71
2022/10/02 02:16:34;;;;;;;14.30;1.27;;;10.60;99.90;;;;;;5053565;28;20299;-71
2022/10/02 02:19:02;;;;;;;13.20;1.73;;;10.60;99.90;;;;;;5066446;28;20307;-71
2022/10/02 02:21:32;;;;;;;14.43;1.50;;;10.60;99.90;;;;;;5046206;28;20311;-71
2022/10/02 02:24:03;;;;;;;14.90;2.30;;;10.60;99.90;;;;;;5083059;28;20331;-71
2022/10/02 02:26:29;;;;;;;14.67;2.00;;;10.60;99.90;;;;;;5044918;28;20298;-71
2022/10/02 02:29:04;;;;;;;13.60;1.43;;;10.60;99.90;;;;;;5080941;28;20381;-71
2022/10/02 02:31:38;;;;;;;12.50;1.55;;;10.60;99.90;;;;;;5073702;28;20303;-71
2022/10/02 02:34:10;;;;;;;12.60;1.58;;;10.70;99.90;;;;;;5070793;28;20045;-71
2022/10/02 02:36:40;;;;;;;15.70;1.83;;;10.70;99.90;;;;;;5076106;28;20044;-71
2022/10/02 02:39:11;;;;;;;12.40;1.70;;;10.80;99.90;;;;;;5081193;28;20329;-71
2022/10/02 02:41:43;;;;;;;13.27;1.77;;;10.80;99.90;;;;;;5067346;28;20381;-71
2022/10/02 02:44:28;;;;;;;11.53;1.63;;;10.90;99.90;;;;;;5056594;28;20882;-71
2022/10/02 02:47:03;;;;;;;11.38;1.77;;;10.80;99.90;;;;;;5050028;28;20629;-71
2022/10/02 02:49:46;;;;;;;10.93;1.40;;;10.80;99.90;;;;;;5047573;28;20049;-71
2022/10/02 02:52:20;;;;;;;13.57;1.43;;;10.80;99.90;;;;;;5073146;28;20968;-71
2022/10/02 02:54:53;;;;;;;12.17;1.50;;;10.80;99.90;;;;;;5075016;28;20303;-70
2022/10/02 02:57:27;;;;;;;11.07;1.93;;;10.80;99.90;;;;;;5074919;28;20298;-70
2022/10/02 02:59:57;;;;;;;11.13;1.73;;;10.80;99.90;;;;;;5069107;28;20333;-70
2022/10/02 03:02:23;;;;;;;13.23;1.90;;;10.80;99.90;;;;;;5071181;28;20076;-70
2022/10/02 03:04:48;;;;;;;9.50;1.47;;;10.80;99.90;;;;;;5044925;28;20344;-70
2022/10/02 03:07:16;;;;;;;15.23;2.20;;;10.80;99.90;;;;;;5018550;28;20037;-71
2022/10/02 03:09:55;;;;;;;9.40;1.23;;;10.80;99.90;;;;;;5039248;28;20590;-71
2022/10/02 03:12:51;;;;;;;17.73;2.17;;;10.70;99.90;;;;;;5041656;28;20322;-71
2022/10/02 03:15:43;;;;;;;13.05;1.55;;;10.60;99.90;;;;;;5070536;28;20685;-71
2022/10/02 03:18:31;;;;;;;10.17;1.53;;;10.50;99.90;;;;;;5051977;28;20052;-71
2022/10/02 03:21:09;;;;;;;8.30;1.33;;;10.50;99.90;;;;;;5051605;28;20280;-71
2022/10/02 03:23:59;;;;;;;11.13;1.30;;;10.40;99.90;;;;;;5053812;28;20304;-71
2022/10/02 03:26:33;;;;;;;18.13;1.40;;;10.30;99.90;;;;;;5054037;28;20767;-71
2022/10/02 03:29:01;;;;;;;10.47;2.17;;;10.40;99.90;;;;;;5082123;28;20299;-71
2022/10/02 03:31:31;;;;;;;18.17;1.90;;;10.50;99.90;;;;;;5054717;28;20287;-71
2022/10/02 03:33:59;;;;;;;10.13;1.33;;;10.50;99.90;;;;;;5060537;28;20290;-71
2022/10/02 03:36:25;;;;;;;11.20;1.63;;;10.60;99.90;;;;;;5070276;28;20275;-71
2022/10/02 03:38:55;;;;;;;14.20;1.70;;;10.60;99.90;;;;;;5059950;28;20351;-71
2022/10/02 03:41:20;;;;;;;13.70;1.40;;;10.60;99.90;;;;;;5062327;28;20312;-71
2022/10/02 03:43:46;;;;;;;16.07;2.03;;;10.60;99.90;;;;;;5025900;28;20299;-71
2022/10/02 03:46:12;;;;;;;10.13;2.47;;;10.60;99.90;;;;;;5055613;28;20367;-71
2022/10/02 03:48:38;;;;;;;15.57;2.27;;;10.60;99.90;;;;;;5046367;28;20032;-71
2022/10/02 03:51:03;;;;;;;11.93;1.33;;;10.60;99.90;;;;;;5031219;28;20040;-71
2022/10/02 03:53:33;;;;;;;12.83;1.90;;;10.50;99.90;;;;;;5058966;28;20040;-71
2022/10/02 03:56:04;;;;;;;11.97;0.93;;;10.50;99.90;;;;;;5076716;28;20119;-71
2022/10/02 03:58:31;;;;;;;15.13;1.87;;;10.50;99.90;;;;;;5057293;28;20343;-71
2022/10/02 04:01:15;;;;;;;12.80;1.67;;;10.50;99.90;;;;;;5036668;28;20307;-71
2022/10/02 04:04:07;;;;;;;13.30;1.40;;;10.40;99.90;;;;;;5051413;28;20301;-71
2022/10/02 04:06:56;;;;;;;9.63;1.40;;;10.40;99.90;;;;;;5058314;28;20372;-71
2022/10/02 04:09:34;;;;;;;7.60;1.50;;;10.40;99.90;;;;;;5071715;28;20398;-71
2022/10/02 04:12:14;;;;;;;11.47;1.97;;;10.30;99.90;;;;;;5076190;28;20307;-71
2022/10/02 04:14:56;;;;;;;11.33;1.97;;;10.20;99.90;;;;;;5066323;28;20320;-71
2022/10/02 04:17:45;;;;;;;9.10;1.83;;;10.20;99.90;;;;;;5054764;28;20290;-71
2022/10/02 04:20:42;;;;;;;13.50;1.27;;;10.10;99.90;;;;;;5060231;28;20810;-71
2022/10/02 04:23:19;;;;;;;12.07;1.53;;;10.10;99.90;;;;;;5054177;28;20287;-71
2022/10/02 04:25:50;;;;;;;16.53;2.27;;;10.00;99.90;;;;;;5066047;28;20302;-70
2022/10/02 04:28:22;;;;;;;11.63;1.77;;;10.00;99.90;;;;;;5059025;28;20791;-70
2022/10/02 04:30:52;;;;;;;17.73;2.13;;;10.00;99.90;;;;;;5061403;28;20297;-70
2022/10/02 04:33:19;;;;;;;18.07;2.03;;;10.00;99.90;;;;;;5081856;28;20304;-70
2022/10/02 04:36:03;;;;;;;13.50;1.77;;;10.00;99.90;;;;;;5041306;28;20279;-70
2022/10/02 04:38:41;;;;;;;11.37;1.43;;;10.00;99.90;;;;;;5067026;28;20976;-70
2022/10/02 04:41:29;;;;;;;17.20;1.60;;;10.00;99.90;;;;;;5061988;28;20309;-70
2022/10/02 04:44:01;;;;;;;11.70;1.47;;;9.90;99.90;;;;;;5082384;28;20441;-70
2022/10/02 04:46:40;;;;;;;16.23;1.70;;;9.90;99.90;;;;;;5075923;28;20759;-70
2022/10/02 04:49:32;;;;;;;13.03;1.20;;;9.90;99.90;;;;;;5060930;28;20330;-70
2022/10/02 04:52:06;;;;;;;11.90;1.35;;;9.90;99.90;;;;;;5068260;28;20302;-71
2022/10/02 04:54:32;;;;;;;14.95;2.10;;;9.90;99.90;;;;;;5087003;28;20633;-71
2022/10/02 04:57:33;;;;;;;12.67;1.90;;;9.90;99.90;;;;;;5077176;28;20051;-71
2022/10/02 05:00:18;;;;;;;16.33;1.90;;;9.80;99.90;;;;;;5057265;28;20856;-71
2022/10/02 05:03:29;;;;;;;8.80;1.60;;;9.70;99.90;;;;;;5067288;28;20294;-71
2022/10/02 05:06:10;;;;;;;10.60;1.33;;;9.70;99.90;;;;;;5030611;28;20552;-71
2022/10/02 05:09:12;;;;;;;10.20;1.53;;;9.60;99.90;;;;;;5061741;28;20355;-71
2022/10/02 05:12:02;;;;;;;14.13;1.35;;;9.50;99.90;;;;;;5063150;28;20962;-71
2022/10/02 05:15:17;;;;;;;18.13;1.60;;;9.50;99.90;;;;;;5054439;28;20032;-71
2022/10/02 05:18:27;;;;;;;10.68;1.48;;;9.50;99.90;;;;;;5043073;28;20635;-71
2022/10/02 05:21:20;;;;;;;15.60;1.67;;;9.50;99.90;;;;;;5051559;28;20902;-70
2022/10/02 05:23:58;;;;;;;19.83;2.23;;;9.60;99.90;;;;;;5052911;28;20407;-70
2022/10/02 05:26:40;;;;;;;15.70;1.27;;;9.60;99.90;;;;;;5073182;28;20513;-70
2022/10/02 05:29:06;;;;;;;11.95;1.33;;;9.70;99.90;;;;;;5067646;28;20090;-70
2022/10/02 05:32:01;;;;;;;12.97;1.33;;;9.70;99.90;;;;;;5056022;28;20041;-71
2022/10/02 05:34:58;;;;;;;11.75;2.40;;;9.70;99.90;;;;;;5063531;28;20075;-71
2022/10/02 05:37:32;;;;;;;12.57;1.67;;;9.70;99.90;;;;;;5045812;28;20052;-71
2022/10/02 05:40:21;;;;;;;11.77;1.60;;;9.70;99.90;;;;;;5066181;28;20303;-71
2022/10/02 05:43:00;;;;;;;15.18;1.65;;;9.70;99.90;;;;;;5063983;28;20036;-71
2022/10/02 05:45:30;;;;;;;13.20;1.55;;;9.70;99.90;;;;;;5083340;28;20053;-71
2022/10/02 05:48:21;;;;;;;12.95;2.13;;;9.70;99.90;;;;;;5050368;28;20182;-71
2022/10/02 05:50:52;;;;;;;11.98;1.85;;;9.70;99.90;;;;;;5063324;28;20491;-71
2022/10/02 05:53:22;;;;;;;14.23;2.53;;;9.80;99.90;;;;;;5063705;28;20465;-71
2022/10/02 05:56:01;;;;;;;14.48;1.60;;;9.90;99.90;;;;;;5056516;28;20138;-71
2022/10/02 05:58:29;;;;;;;17.73;3.23;;;10.10;99.90;;;;;;5067173;28;20080;-71
2022/10/02 06:01:11;;;;;;;15.20;2.23;;;10.20;99.90;;;;;;5065803;28;20298;-71
2022/10/02 06:04:05;;;;;;;13.32;2.28;;;10.20;99.90;;;;;;5054915;28;20287;-71
2022/10/02 06:06:52;;;;;;;18.60;2.87;;;10.20;99.90;;;;;;5067581;28;20044;-71
2022/10/02 06:09:25;;;;;;;10.73;1.20;;;10.30;99.90;;;;;;5053468;28;20290;-71
2022/10/02 06:11:58;;;;;;;12.73;1.37;;;10.40;99.90;;;;;;5075075;28;20790;-71
2022/10/02 06:14:26;;;;;;;14.53;2.10;;;10.50;99.90;;;;;;5057370;28;20295;-71
2022/10/02 06:17:09;;;;;;;12.23;1.90;;;10.60;99.90;;;;;;5052463;28;20294;-71
2022/10/02 06:19:41;;;;;;;15.33;1.47;;;10.80;99.90;;;;;;5063764;28;20306;-71
2022/10/02 06:22:40;;;;;;;10.77;1.87;;;10.90;99.90;;;;;;5059974;28;20842;-71
2022/10/02 06:25:18;;;;;;;12.80;1.83;;;11.00;99.90;;;;;;5089226;28;20275;-71
2022/10/02 06:28:16;;;;;;;13.37;1.30;;;11.20;99.90;;;;;;5076280;28;20368;-70
2022/10/02 06:30:50;;;;;;;14.17;2.00;;;11.30;99.90;;;;;;5037766;28;20291;-71
2022/10/02 06:33:18;;;;;;;14.00;2.03;;;11.40;99.90;;;;;;5071420;28;20310;-71
2022/10/02 06:35:50;;;;;;;11.87;1.90;;;11.50;99.90;;;;;;5067789;28;20302;-70
2022/10/02 06:38:19;;;;;;;12.93;1.60;;;11.60;99.90;;;;;;5064169;28;20307;-71
2022/10/02 06:40:59;;;;;;;13.03;1.33;;;11.70;99.90;;;;;;5062555;28;20306;-70
2022/10/02 06:43:40;;;;;;;11.93;1.57;;;11.70;99.90;;;;;;5063117;28;20294;-70
2022/10/02 06:46:26;;;;;;;12.97;2.10;;;11.80;99.90;;;;;;5077800;28;20279;-70
2022/10/02 06:49:08;;;;;;;7.67;1.20;;;11.80;99.90;;;;;;5060334;28;20298;-70
2022/10/02 06:52:04;;;;;;;8.00;1.70;;;11.80;99.90;;;;;;5073522;28;20309;-70
2022/10/02 06:54:52;;;;;;;9.50;1.63;;;11.80;99.90;;;;;;5070848;28;20290;-70
2022/10/02 06:57:44;;;;;;;10.00;1.73;;;11.70;99.90;;;;;;5059735;28;20304;-71
2022/10/02 07:00:15;;;;;;;12.83;1.53;;;11.70;99.90;;;;;;5068758;28;20377;-71
2022/10/02 07:03:08;;;;;;;9.67;1.57;;;11.80;99.90;;;;;;5062139;28;20302;-71
2022/10/02 07:05:59;;;;;;;9.63;2.07;;;11.90;99.90;;;;;;5063942;28;20302;-71
2022/10/02 07:08:24;;;;;;;7.70;1.83;;;12.20;99.90;;;;;;5054457;28;20294;-71
2022/10/02 07:11:18;;;;;;;14.27;1.97;;;12.40;99.90;;;;;;5053196;28;20299;-71
2022/10/02 07:13:59;;;;;;;12.03;1.73;;;12.50;99.90;;;;;;5046799;28;20102;-71
2022/10/02 07:16:52;;;;;;;13.30;1.90;;;12.50;99.90;;;;;;5069784;28;20291;-71
2022/10/02 07:19:33;;;;;;;14.17;1.73;;;12.50;99.90;;;;;;5055362;28;20303;-71
2022/10/02 07:22:17;;;;;;;12.27;2.10;;;12.60;99.90;;;;;;5059426;28;20346;-71
2022/10/02 07:25:05;;;;;;;16.30;2.60;;;12.80;99.90;;;;;;5055400;28;20337;-71
2022/10/02 07:27:46;;;;;;;15.10;1.93;;;12.90;99.90;;;;;;5040515;28;20356;-71
2022/10/02 07:30:15;;;;;;;12.40;2.10;;;12.90;99.90;;;;;;5050544;28;20293;-71
2022/10/02 07:33:08;;;;;;;11.47;2.50;;;12.80;99.90;;;;;;5072981;28;20328;-71
2022/10/02 07:35:43;;;;;;;12.40;1.60;;;12.80;99.90;;;;;;5054426;28;20290;-71
2022/10/02 07:38:43;;;;;;;13.20;1.97;;;12.80;99.90;;;;;;5071102;28;20318;-71
2022/10/02 07:41:49;;;;;;;12.73;2.43;;;12.90;99.90;;;;;;5077995;28;20306;-71
2022/10/02 07:44:26;;;;;;;13.83;2.10;;;13.00;99.90;;;;;;5051877;28;20291;-71
2022/10/02 07:47:07;;;;;;;9.83;1.97;;;13.10;99.90;;;;;;5055814;28;20278;-71
2022/10/02 07:49:47;;;;;;;12.13;1.77;;;13.20;99.90;;;;;;5058689;28;20290;-71
2022/10/02 07:52:50;;;;;;;14.37;2.20;;;13.30;99.90;;;;;;5053570;28;20295;-72
2022/10/02 07:55:21;;;;;;;14.50;2.00;;;13.50;99.90;;;;;;5061207;28;20311;-72
2022/10/02 07:57:58;;;;;;;12.50;1.90;;;13.60;99.90;;;;;;5075386;28;20888;-72
2022/10/02 08:00:27;;;;;;;11.97;2.10;;;13.70;99.90;;;;;;5055612;28;20336;-72
2022/10/02 08:03:12;;;;;;;15.37;2.30;;;13.70;99.90;;;;;;5074925;28;20333;-72
2022/10/02 08:05:47;;;;;;;13.00;2.27;;;13.90;99.90;;;;;;5060671;28;21199;-72
2022/10/02 08:08:42;;;;;;;11.60;2.37;;;14.00;99.90;;;;;;5076686;28;20897;-72
2022/10/02 08:11:13;;;;;;;15.33;2.33;;;14.10;99.90;;;;;;5064427;28;20322;-72
2022/10/02 08:13:52;;;;;;;11.83;2.30;;;14.30;99.90;;;;;;5068093;28;20297;-71
2022/10/02 08:16:22;;;;;;;10.73;1.87;;;14.50;99.90;;;;;;5043836;28;21015;-72
2022/10/02 08:19:14;;;;;;;19.33;2.00;;;14.50;99.90;;;;;;5060768;28;20302;-72
2022/10/02 08:21:45;;;;;;;10.30;1.70;;;14.50;99.90;;;;;;5067526;28;20361;-72
2022/10/02 08:24:21;;;;;;;10.13;2.03;;;14.50;99.70;;;;;;5060686;28;20294;-72
2022/10/02 08:27:11;;;;;;;10.10;1.50;;;14.50;98.40;;;;;;5103841;28;20290;-72
2022/10/02 08:30:15;;;;;;;12.27;2.13;;;14.60;98.50;;;;;;5075656;28;20309;-72
2022/10/02 08:32:42;;;;;;;13.50;2.70;;;14.70;96.70;;;;;;5051808;28;20302;-72
2022/10/02 08:35:18;;;;;;;18.73;2.20;;;14.70;97.70;;;;;;5064157;28;20294;-72
2022/10/02 08:38:19;;;;;;;17.50;2.07;;;14.80;94.20;;;;;;5075998;28;20291;-72
2022/10/02 08:41:07;;;;;;;10.20;1.77;;;14.90;94.30;;;;;;5088396;28;20294;-72
2022/10/02 08:43:48;;;;;;;13.10;2.50;;;15.00;91.30;;;;;;5064741;28;20298;-72
2022/10/02 08:46:41;;;;;;;13.40;1.80;;;15.00;90.80;;;;;;5079482;28;20289;-72
2022/10/02 08:49:32;;;;;;;14.37;2.03;;;15.00;91.10;;;;;;5049174;28;20291;-72
2022/10/02 08:52:28;;;;;;;10.70;1.40;;;15.10;91.00;;;;;;5061460;28;20314;-72
2022/10/02 08:55:17;;;;;;;12.50;1.63;;;15.20;89.70;;;;;;5073876;28;20293;-72
2022/10/02 08:57:53;;;;;;;12.07;1.73;;;15.20;89.80;;;;;;5034970;28;20345;-73
2022/10/02 09:00:21;;;;;;;13.50;2.23;;;15.20;87.70;;;;;;5058475;28;20298;-72
2022/10/02 09:03:32;;;;;;;7.87;1.70;;;15.20;87.00;;;;;;5060492;28;20303;-72
2022/10/02 09:06:22;;;;;;;16.50;2.03;;;15.20;84.10;;;;;;5059641;28;20434;-72
2022/10/02 09:09:19;;;;;;;10.53;1.80;;;15.30;85.30;;;;;;5076102;28;20301;-72
2022/10/02 09:12:27;;;;;;;8.73;1.60;;;15.30;85.10;;;;;;5074961;28;20294;-72
2022/10/02 09:15:09;;;;;;;12.80;1.67;;;15.40;84.70;;;;;;5046128;28;20295;-72
2022/10/02 09:17:53;;;;;;;11.47;2.00;;;15.50;83.40;;;;;;5079935;28;20844;-72
2022/10/02 09:20:37;;;;;;;9.50;2.17;;;15.40;81.00;;;;;;5066994;28;20714;-72
2022/10/02 09:23:21;;;;;;;13.30;1.70;;;15.40;81.50;;;;;;5060252;28;20413;-72
2022/10/02 09:25:59;;;;;;;8.23;1.47;;;15.40;80.10;;;;;;5057062;28;20294;-72
2022/10/02 09:28:59;;;;;;;10.03;1.27;;;15.40;77.80;;;;;;5067173;28;20302;-72
2022/10/02 09:31:39;;;;;;;9.50;1.47;;;15.40;79.40;;;;;;5050182;28;20697;-72
2022/10/02 09:34:22;;;;;;;9.73;1.60;;;15.40;77.90;;;;;;5058786;28;20299;-72
2022/10/02 09:37:03;;;;;;;8.10;1.13;;;15.50;79.00;;;;;;5060276;28;20292;-72
2022/10/02 09:40:08;;;;;;;10.57;1.80;;;15.60;78.20;;;;;;5060249;28;20356;-72
2022/10/02 09:43:16;;;;;;;10.33;1.67;;;15.70;77.60;;;;;;5062513;28;20359;-72
2022/10/02 09:45:58;;;;;;;10.23;1.40;;;15.80;78.50;;;;;;5066599;28;20287;-72
2022/10/02 09:48:54;;;;;;;11.53;1.53;;;15.80;76.00;;;;;;5076016;28;20294;-72
2022/10/02 09:51:23;;;;;;;12.57;1.65;;;15.70;76.00;;;;;;5074032;28;20316;-72
2022/10/02 09:54:14;;;;;;;15.27;1.93;;;15.70;76.40;;;;;;5058939;28;20064;-72
2022/10/02 09:57:14;;;;;;;10.13;1.50;;;15.60;77.40;;;;;;5060721;28;20374;-72
2022/10/02 10:00:10;;;;;;;11.80;1.43;;;15.80;78.40;;;;;;5074238;28;20805;-73
2022/10/02 10:02:51;;;;;;;;;;;16.10;79.50;;;;;;5057523;28;20293;-72
2022/10/02 10:05:43;;;;;;;11.83;1.37;;;16.50;76.80;;;;;;5074155;28;20368;-72
2022/10/02 10:08:28;;;;;;;8.93;1.50;;;16.80;78.60;;;;;;5056050;28;20369;-72
2022/10/02 10:11:13;;;;;;;10.52;1.23;;;17.00;78.90;;;;;;5077149;28;20314;-72
2022/10/02 10:14:03;;;;;;;17.15;1.85;;;16.70;73.40;;;;;;5057733;28;20048;-72
2022/10/02 10:17:18;;;;;;;12.50;2.37;;;16.30;76.00;;;;;;5054514;28;20048;-72
2022/10/02 10:20:07;;;;;;;13.40;2.00;;;15.90;76.10;;;;;;5058252;28;20808;-72
2022/10/02 10:23:11;;;;;;;13.40;3.00;;;15.60;77.50;;;;;;5059917;28;20299;-72
2022/10/02 10:25:55;;;;;;;14.80;3.00;;;15.70;80.20;;;;;;5058441;28;20282;-72
2022/10/02 10:28:51;;;;;;;12.63;1.70;;;16.00;80.50;;;;;;5058769;28;20779;-73
2022/10/02 10:31:49;;;;;;;13.10;2.13;;;16.40;77.60;;;;;;5072377;28;20286;-72
2022/10/02 10:34:32;;;;;;;12.07;1.50;;;16.60;76.30;;;;;;5069295;28;20290;-72
2022/10/02 10:40:44;;;;;;;12.97;1.60;;;16.50;72.40;;;;;;5074754;28;20370;-72
2022/10/02 10:43:40;;;;;;;9.20;1.90;;;16.50;73.60;;;;;;4987137;28;20685;-72
2022/10/02 10:46:25;;;;;;;;;;;16.50;75.30;;;;;;5076187;28;20389;-72
2022/10/02 10:49:29;;;;;;;15.50;2.73;;;16.70;74.20;;;;;;5074265;28;19973;-72
2022/10/02 10:52:18;;;;;;;16.00;2.53;;;16.90;76.50;;;;;;5056385;28;20368;-71
2022/10/02 10:55:33;;;;;;;12.57;1.73;;;16.90;73.40;;;;;;5074788;28;20294;-72
2022/10/02 10:58:04;;;;;;;12.43;1.93;;;16.80;74.90;;;;;;5088025;28;20720;-72
2022/10/02 11:01:08;;;;;;;13.70;1.77;;;16.90;73.00;;;;;;5049197;28;20386;-72
2022/10/02 11:03:52;;;;;;;12.13;1.93;;;17.10;72.90;;;;;;5056516;28;20648;-72
2022/10/02 11:06:34;;;;;;;11.97;2.60;;;17.10;72.10;;;;;;5073136;28;20789;-73
2022/10/02 11:09:17;;;;;;;10.17;1.57;;;17.20;73.90;;;;;;5070445;28;20869;-72
2022/10/02 11:12:12;;;;;;;12.27;1.93;;;17.20;73.90;;;;;;5075430;28;20278;-72
2022/10/02 11:15:08;;;;;;;11.77;1.40;;;17.10;72.20;;;;;;5058863;28;20283;-74
2022/10/02 11:17:59;;;;;;;11.03;1.60;;;16.80;71.30;;;;;;5076659;28;20295;-73
2022/10/02 11:20:53;;;;;;;9.37;1.23;;;16.60;71.90;;;;;;5056092;28;20295;-73
2022/10/02 11:23:21;;;;;;;11.23;1.70;;;16.80;71.80;;;;;;5056554;28;20286;-73
2022/10/02 11:26:08;;;;;;;20.17;2.10;;;16.90;72.10;;;;;;5076904;28;20357;-72
2022/10/02 11:28:40;;;;;;;10.83;1.50;;;17.00;73.70;;;;;;5055425;28;20662;-72
2022/10/02 11:31:41;;;;;;;17.33;2.17;;;17.00;72.10;;;;;;5076218;28;20295;-74
2022/10/02 11:34:59;;;;;;;10.10;1.50;;;17.10;72.80;;;;;;5075704;28;20289;-73
2022/10/02 11:37:43;;;;;;;12.93;1.80;;;17.20;68.30;;;;;;5023519;28;20289;-73
2022/10/02 11:40:08;;;;;;;11.60;2.10;;;17.40;69.70;;;;;;5056505;28;20760;-74
2022/10/02 11:42:51;;;;;;;11.57;1.47;;;17.50;69.70;;;;;;5073388;28;20719;-73
2022/10/02 11:45:48;;;;;;;12.17;1.43;;;17.50;69.30;;;;;;5056500;28;20498;-72
2022/10/02 11:48:40;;;;;;;8.87;1.70;;;17.50;67.70;;;;;;5065436;28;20286;-72
2022/10/02 11:51:21;;;;;;;10.53;1.50;;;17.40;67.00;;;;;;5066513;28;20283;-73
2022/10/02 11:53:56;;;;;;;11.33;1.40;;;17.30;68.10;;;;;;5057226;28;20688;-72
2022/10/02 11:56:44;;;;;;;12.23;2.03;;;17.30;69.70;;;;;;5059437;28;20305;-72
2022/10/02 11:59:32;;;;;;;11.27;1.90;;;17.40;70.70;;;;;;5066898;28;20807;-73
2022/10/02 12:02:28;;;;;;;15.87;1.63;;;17.60;71.30;;;;;;5053710;28;20302;-72
2022/10/02 12:05:32;;;;;;;9.10;1.30;;;17.80;69.90;;;;;;5073379;28;20370;-73
2022/10/02 12:08:33;;;;;;;12.07;1.83;;;17.90;68.20;;;;;;5064980;28;20318;-72
2022/10/02 12:11:20;;;;;;;10.67;1.60;;;17.80;67.40;;;;;;5059060;28;20297;-73
2022/10/02 12:14:09;;;;;;;10.13;1.23;;;17.80;66.30;;;;;;5069004;28;20316;-72
2022/10/02 12:16:43;;;;;;;11.57;1.73;;;17.80;66.80;;;;;;5069236;28;20290;-73
2022/10/02 12:19:18;;;;;;;11.15;1.60;;;17.80;68.70;;;;;;5067179;28;20318;-73
2022/10/02 12:28:26;;;;;;;11.07;2.00;;;17.60;64.60;;;;;;4987682;28;20388;-73
2022/10/02 12:31:15;;;;;;;10.87;1.20;;;17.50;65.30;;;;;;4972501;28;20301;-72
2022/10/02 12:33:58;;;;;;;10.13;1.10;;;17.40;66.10;;;;;;5045440;28;20969;-72
2022/10/02 12:36:43;;;;;;;11.37;1.63;;;17.40;66.50;;;;;;5073596;28;20734;-72
2022/10/02 12:39:47;;;;;;;11.87;1.60;;;17.30;68.70;;;;;;5053347;28;20306;-72
2022/10/02 12:42:50;;;;;;;9.40;1.47;;;17.10;66.70;;;;;;5071832;28;20282;-72
2022/10/02 12:45:50;;;;;;;11.73;1.67;;;17.10;68.10;;;;;;5072581;28;20298;-72
2022/10/02 12:48:52;;;;;;;6.70;1.03;;;17.20;68.70;;;;;;5059836;28;20306;-72
2022/10/02 12:51:54;;;;;;;9.57;1.80;;;17.30;67.10;;;;;;5065184;28;20283;-72
2022/10/02 12:55:01;;;;;;;11.43;1.27;;;17.30;67.20;;;;;;5062125;28;20275;-72
2022/10/02 12:57:51;;;;;;;16.10;1.63;;;17.40;65.30;;;;;;5049612;28;20302;-72
2022/10/02 13:00:25;;;;;;;10.67;1.10;;;17.30;66.80;;;;;;5068751;28;20772;-72
2022/10/02 13:03:09;;;;;;;9.03;1.27;;;17.30;66.70;;;;;;5071271;28;20653;-72
2022/10/02 13:06:09;;;;;;;10.17;1.30;;;17.20;65.90;;;;;;5072908;28;20275;-72
2022/10/02 13:08:40;;;;;;;11.00;1.60;;;17.10;65.90;;;;;;5073438;28;20741;-72
2022/10/02 13:11:43;;;;;;;11.70;1.10;;;16.90;67.30;;;;;;5074987;28;20282;-72
2022/10/02 13:14:40;;;;;;;11.17;1.77;;;17.00;68.50;;;;;;5057943;28;20898;-71
2022/10/02 13:17:50;;;;;;;10.03;1.60;;;16.80;67.30;;;;;;5055267;28;20358;-71
2022/10/02 13:20:30;;;;;;;9.90;1.27;;;16.60;67.50;;;;;;5010109;28;20328;-72
2022/10/02 13:23:05;;;;;;;8.27;1.10;;;16.60;68.00;;;;;;5011067;28;20286;-72
2022/10/02 13:26:14;;;;;;;10.25;1.50;;;16.70;68.20;;;;;;5035590;28;20306;-72
2022/10/02 13:28:52;;;;;;;9.77;0.90;;;16.90;68.20;;;;;;5046773;28;20051;-72
2022/10/02 13:31:57;;;;;;;7.60;1.23;;;17.10;67.50;;;;;;5048781;28;20279;-72
2022/10/02 13:34:47;;;;;;;10.37;1.27;;;17.20;66.70;;;;;;5065640;28;20267;-72
2022/10/02 13:37:50;;;;;;;13.07;1.20;;;17.30;66.70;;;;;;5068453;28;20370;-72
2022/10/02 13:40:31;;;;;;;8.13;1.57;;;17.30;66.70;;;;;;5068607;28;20303;-72
2022/10/02 13:43:34;;;;;;;10.10;1.67;;;17.30;67.20;;;;;;5072519;28;20301;-71
2022/10/02 13:46:05;;;;;;;7.27;1.20;;;17.20;66.50;;;;;;5077425;28;20319;-71
2022/10/02 13:48:53;;;;;;;10.47;1.03;;;17.10;68.10;;;;;;5079931;28;20347;-71
2022/10/02 13:51:54;;;;;;;12.83;1.43;;;17.20;68.00;;;;;;5056805;28;20806;-71
2022/10/02 13:54:41;;;;;;;11.10;1.73;;;17.20;68.60;;;;;;5058493;28;20377;-71
2022/10/02 13:57:14;;;;;;;10.93;2.07;;;17.20;68.40;;;;;;5052730;28;20341;-72
2022/10/02 14:00:09;;;;;;;14.07;1.40;;;17.10;67.90;;;;;;5053683;28;20295;-72
2022/10/02 14:02:58;;;;;;;6.47;1.27;;;17.10;69.70;;;;;;5072402;28;20293;-72
2022/10/02 14:05:47;;;;;;;11.73;1.20;;;17.30;68.40;;;;;;5054036;28;20477;-72
2022/10/02 14:08:27;;;;;;;9.57;1.30;;;17.40;68.70;;;;;;5052020;28;20289;-72
2022/10/02 14:11:02;;;;;;;10.67;1.10;;;17.50;68.40;;;;;;5064162;28;20763;-72
2022/10/02 14:13:34;;;;;;;10.05;1.30;;;17.50;68.00;;;;;;5053151;28;20378;-72